Time;durP1;ratioP1;P1;durP2;ratioP2;P2;SDS_P1;SDS_P2;PMS_P1;PMS_P2;Temp;Humidity;BMP_temperature;BMP_pressure;BME280_temperature;BME280_humidity;BME280_pressure;Samples;Min_cycle;Max_cycle;Signal;HPM_P1;HPM_P2
2022/07/27 00:01:15;;;;;;;1.70;0.60;;;14.00;99.90;;;;;;5065563;28;20040;-45
2022/07/27 00:03:42;;;;;;;2.28;0.80;;;14.00;99.90;;;;;;5055562;28;20107;-45
2022/07/27 00:06:08;;;;;;;2.80;0.93;;;13.90;99.90;;;;;;5061910;28;20098;-45
2022/07/27 00:08:34;;;;;;;6.60;1.25;;;13.90;99.90;;;;;;5056132;28;20037;-46
2022/07/27 00:10:59;;;;;;;1.50;0.75;;;13.90;99.90;;;;;;5054250;28;20121;-44
2022/07/27 00:13:25;;;;;;;2.40;1.05;;;13.80;99.90;;;;;;5061010;28;20036;-47
2022/07/27 00:15:51;;;;;;;1.60;0.60;;;13.80;99.90;;;;;;5053038;28;20551;-46
2022/07/27 00:18:17;;;;;;;5.13;1.30;;;13.90;99.90;;;;;;5056279;28;20406;-46
2022/07/27 00:20:42;;;;;;;4.88;0.82;;;13.90;99.90;;;;;;5071104;28;20037;-44
2022/07/27 00:23:08;;;;;;;2.03;0.50;;;13.90;99.90;;;;;;5066315;28;20112;-46
2022/07/27 00:25:35;;;;;;;2.63;0.80;;;13.80;99.90;;;;;;5060921;28;20049;-45
2022/07/27 00:28:00;;;;;;;2.65;0.98;;;13.80;99.90;;;;;;5053061;28;20037;-47
2022/07/27 00:30:26;;;;;;;2.00;0.60;;;13.80;99.90;;;;;;5056861;28;20044;-46
2022/07/27 00:32:52;;;;;;;4.32;1.00;;;13.80;99.90;;;;;;5054177;28;20370;-45
2022/07/27 00:35:18;;;;;;;;;;;13.80;99.90;;;;;;5059269;28;20041;-46
2022/07/27 00:37:43;;;;;;;2.28;0.80;;;13.70;99.90;;;;;;5051376;28;19923;-46
2022/07/27 00:40:10;;;;;;;4.45;1.13;;;13.70;99.90;;;;;;5054482;28;20398;-45
2022/07/27 00:42:36;;;;;;;1.48;0.88;;;13.70;99.90;;;;;;5059665;28;20039;-45
2022/07/27 00:45:02;;;;;;;5.15;0.65;;;13.70;99.90;;;;;;5064536;28;20040;-45
2022/07/27 00:47:28;;;;;;;2.10;0.80;;;13.80;99.90;;;;;;5051728;28;20033;-46
2022/07/27 00:49:54;;;;;;;4.07;0.85;;;13.70;99.90;;;;;;5052526;28;20091;-46
2022/07/27 00:52:21;;;;;;;5.80;1.20;;;13.80;99.90;;;;;;5051447;28;20037;-45
2022/07/27 00:54:47;;;;;;;5.22;0.70;;;13.80;99.90;;;;;;5057627;28;20037;-47
2022/07/27 00:57:14;;;;;;;5.40;0.80;;;13.70;99.90;;;;;;5069629;28;20036;-46
2022/07/27 00:59:39;;;;;;;5.13;1.38;;;13.70;99.90;;;;;;5054755;28;20470;-45
2022/07/27 01:02:06;;;;;;;3.90;0.73;;;13.70;99.90;;;;;;5057958;28;20040;-45
2022/07/27 01:04:32;;;;;;;9.30;1.58;;;13.70;99.90;;;;;;5053520;28;20091;-46
2022/07/27 01:06:58;;;;;;;4.18;0.98;;;13.70;99.90;;;;;;5052124;28;20028;-45
2022/07/27 01:12:13;;;;;;;5.53;1.15;;;13.70;99.90;;;;;;5049930;28;20041;-48
2022/07/27 01:14:38;;;;;;;2.90;0.70;;;13.70;99.90;;;;;;5052650;28;20167;-44
2022/07/27 01:17:04;;;;;;;3.22;0.98;;;13.70;99.90;;;;;;5071471;28;20115;-46
2022/07/27 01:19:30;;;;;;;2.25;0.57;;;13.70;99.90;;;;;;5069428;28;20501;-45
2022/07/27 01:21:55;;;;;;;3.05;0.65;;;13.70;99.90;;;;;;5065193;28;20052;-49
2022/07/27 01:24:21;;;;;;;3.72;0.82;;;13.60;99.90;;;;;;5050966;28;20044;-45
2022/07/27 01:26:47;;;;;;;1.75;0.60;;;13.60;99.90;;;;;;5053417;28;20484;-45
2022/07/27 01:29:12;;;;;;;5.15;0.88;;;13.60;99.90;;;;;;5051230;28;20044;-45
2022/07/27 01:31:38;;;;;;;2.17;0.63;;;13.60;99.90;;;;;;5052200;28;20538;-45
2022/07/27 01:34:05;;;;;;;2.60;0.60;;;13.60;99.90;;;;;;5050271;28;20037;-48
2022/07/27 01:36:31;;;;;;;7.82;1.27;;;13.60;99.90;;;;;;5063002;28;20298;-45
2022/07/27 01:38:56;;;;;;;2.97;1.00;;;13.60;99.90;;;;;;5071286;28;20037;-46
2022/07/27 01:41:22;;;;;;;3.55;0.77;;;13.60;99.90;;;;;;5059726;28;20287;-48
2022/07/27 01:43:48;;;;;;;3.22;0.80;;;13.60;99.90;;;;;;5049446;28;20041;-46
2022/07/27 01:46:13;;;;;;;4.40;0.73;;;13.60;99.90;;;;;;5063373;28;20110;-48
2022/07/27 01:48:39;;;;;;;3.35;0.90;;;13.60;99.90;;;;;;5051283;28;20071;-45
2022/07/27 01:51:05;;;;;;;4.63;0.77;;;13.60;99.90;;;;;;5052357;28;20485;-45
2022/07/27 01:53:30;;;;;;;2.95;0.73;;;13.60;99.90;;;;;;5049493;28;20052;-46
2022/07/27 01:55:56;;;;;;;5.30;0.75;;;13.60;99.90;;;;;;5059269;28;20032;-45
2022/07/27 01:58:21;;;;;;;1.23;0.60;;;13.60;99.90;;;;;;5051919;28;20086;-50
2022/07/27 02:00:48;;;;;;;4.13;0.47;;;13.70;99.90;;;;;;5051929;28;20292;-45
2022/07/27 02:03:13;;;;;;;2.50;0.65;;;13.70;99.90;;;;;;5050107;28;20086;-44
2022/07/27 02:05:39;;;;;;;6.72;1.15;;;13.70;99.90;;;;;;5055498;28;20517;-44
2022/07/27 02:08:07;;;;;;;2.22;0.70;;;13.70;99.90;;;;;;5057163;28;20037;-44
2022/07/27 02:10:34;;;;;;;4.05;0.80;;;13.70;99.90;;;;;;5053681;28;20405;-45
2022/07/27 02:12:59;;;;;;;5.75;1.42;;;13.70;99.90;;;;;;5068499;28;20048;-46
2022/07/27 02:15:28;;;;;;;3.40;0.90;;;13.70;99.90;;;;;;5051023;28;20204;-45
2022/07/27 02:17:54;;;;;;;4.45;1.25;;;13.70;99.90;;;;;;5049903;28;20051;-45
2022/07/27 02:20:22;;;;;;;4.68;1.42;;;13.80;99.90;;;;;;5050565;28;20098;-45
2022/07/27 02:22:49;;;;;;;3.50;0.88;;;13.70;99.90;;;;;;5050324;28;20067;-49
2022/07/27 02:25:17;;;;;;;6.85;0.95;;;13.70;99.90;;;;;;5049962;28;20540;-45
2022/07/27 02:27:44;;;;;;;3.95;0.77;;;13.70;99.90;;;;;;5050736;28;20041;-46
2022/07/27 02:30:12;;;;;;;4.35;1.13;;;13.70;99.90;;;;;;5049834;28;20045;-45
2022/07/27 02:32:39;;;;;;;4.10;1.60;;;13.70;99.90;;;;;;5067849;28;20036;-44
2022/07/27 02:35:05;;;;;;;4.40;1.05;;;13.60;99.90;;;;;;5070037;28;20146;-46
2022/07/27 02:37:31;;;;;;;6.25;1.33;;;13.70;99.90;;;;;;5068264;28;20036;-46
2022/07/27 02:39:57;;;;;;;2.97;0.95;;;13.70;99.90;;;;;;5055593;28;20037;-45
2022/07/27 02:42:22;;;;;;;1.38;0.75;;;13.70;99.90;;;;;;5063498;28;20032;-46
2022/07/27 02:44:48;;;;;;;4.18;1.45;;;13.70;99.90;;;;;;5049013;28;20561;-47
2022/07/27 02:47:14;;;;;;;5.47;1.15;;;13.80;99.90;;;;;;5051149;28;20497;-48
2022/07/27 02:49:39;;;;;;;3.03;0.98;;;13.80;99.90;;;;;;5049729;28;20032;-45
2022/07/27 02:52:05;;;;;;;3.35;1.02;;;13.80;99.90;;;;;;5060154;28;20075;-45
2022/07/27 02:54:31;;;;;;;7.32;1.25;;;13.80;99.90;;;;;;5058902;28;20053;-45
2022/07/27 02:56:58;;;;;;;3.72;1.35;;;13.80;99.90;;;;;;5050983;28;20064;-45
2022/07/27 02:59:24;;;;;;;3.53;1.30;;;13.70;99.90;;;;;;5047735;28;20484;-44
2022/07/27 03:01:50;;;;;;;2.70;1.05;;;13.70;99.90;;;;;;5054941;28;20506;-46
2022/07/27 03:04:17;;;;;;;4.35;1.10;;;13.70;99.90;;;;;;5069290;28;20032;-45
2022/07/27 03:06:42;;;;;;;;;;;13.70;99.90;;;;;;5051432;28;20083;-45
2022/07/27 03:09:08;;;;;;;6.15;1.10;;;13.60;99.90;;;;;;5049524;28;19917;-49
2022/07/27 03:11:35;;;;;;;1.95;1.00;;;13.60;99.90;;;;;;5052974;28;20123;-50
2022/07/27 03:14:00;;;;;;;;;;;13.70;99.90;;;;;;5065330;28;20116;-46
2022/07/27 03:16:26;;;;;;;2.67;1.05;;;13.60;99.90;;;;;;5050687;28;19995;-48
2022/07/27 03:18:51;;;;;;;2.50;1.20;;;13.60;99.90;;;;;;5050065;28;20099;-46
2022/07/27 03:21:17;;;;;;;5.72;1.10;;;13.60;99.90;;;;;;5049896;28;20120;-49
2022/07/27 03:23:43;;;;;;;3.58;0.90;;;13.50;99.90;;;;;;5068687;28;20133;-48
2022/07/27 03:26:08;;;;;;;3.80;1.10;;;13.50;99.90;;;;;;5065591;28;20029;-49
2022/07/27 03:28:34;;;;;;;5.97;1.00;;;13.50;99.90;;;;;;5050296;28;20424;-49
2022/07/27 03:31:00;;;;;;;3.33;1.27;;;13.60;99.90;;;;;;5050025;28;20171;-49
2022/07/27 03:33:25;;;;;;;10.93;1.92;;;13.60;99.90;;;;;;5051022;28;20067;-48
2022/07/27 03:35:51;;;;;;;5.53;1.13;;;13.60;99.90;;;;;;5049712;28;20041;-49
2022/07/27 03:38:16;;;;;;;3.67;1.33;;;13.60;99.90;;;;;;5050465;28;20041;-46
2022/07/27 03:40:42;;;;;;;3.92;1.35;;;13.60;99.90;;;;;;5048104;28;20501;-49
2022/07/27 03:43:08;;;;;;;2.70;0.88;;;13.60;99.90;;;;;;5059679;28;20036;-50
2022/07/27 03:45:34;;;;;;;3.15;1.55;;;13.50;99.90;;;;;;5069547;28;20036;-48
2022/07/27 03:47:59;;;;;;;1.50;1.10;;;13.50;99.90;;;;;;5067793;28;20041;-49
2022/07/27 03:50:25;;;;;;;3.88;1.10;;;13.50;99.90;;;;;;5069743;28;20047;-46
2022/07/27 03:52:51;;;;;;;4.75;1.35;;;13.40;99.90;;;;;;5061446;28;20453;-45
2022/07/27 03:55:18;;;;;;;2.30;1.15;;;13.30;99.90;;;;;;5049493;28;20075;-45
2022/07/27 03:57:43;;;;;;;3.60;1.40;;;13.20;99.90;;;;;;5051111;28;20090;-45
2022/07/27 04:00:11;;;;;;;2.75;1.17;;;13.10;99.90;;;;;;5053295;28;20045;-46
2022/07/27 04:02:37;;;;;;;5.53;1.70;;;13.10;99.90;;;;;;5053889;28;20033;-46
2022/07/27 04:05:03;;;;;;;7.07;1.70;;;13.10;99.90;;;;;;5052875;28;20069;-44
2022/07/27 04:07:29;;;;;;;2.22;1.27;;;13.20;99.90;;;;;;5053764;28;20064;-45
2022/07/27 04:09:55;;;;;;;2.38;1.13;;;13.10;99.90;;;;;;5053016;28;20041;-45
2022/07/27 04:12:20;;;;;;;7.28;1.83;;;13.10;99.90;;;;;;5053505;28;20103;-45
2022/07/27 04:14:46;;;;;;;6.82;1.65;;;13.20;99.90;;;;;;5061868;28;20088;-47
2022/07/27 04:17:11;;;;;;;3.50;1.45;;;13.20;99.90;;;;;;5052353;28;20035;-44
2022/07/27 04:19:37;;;;;;;1.92;1.30;;;13.10;99.90;;;;;;5053754;28;20037;-46
2022/07/27 04:22:02;;;;;;;5.15;1.48;;;13.10;99.90;;;;;;5052538;28;20060;-45
2022/07/27 04:24:28;;;;;;;8.23;1.50;;;13.20;99.90;;;;;;5063960;28;20033;-45
2022/07/27 04:26:54;;;;;;;2.10;1.90;;;13.20;99.90;;;;;;5051718;28;20037;-45
2022/07/27 04:29:19;;;;;;;1.95;1.00;;;13.20;99.90;;;;;;5053457;28;20044;-45
2022/07/27 04:31:45;;;;;;;2.10;1.73;;;13.10;99.90;;;;;;5052671;28;20037;-44
2022/07/27 04:34:11;;;;;;;3.03;1.27;;;13.10;99.90;;;;;;5050375;28;20045;-45
2022/07/27 04:36:38;;;;;;;7.10;1.27;;;13.10;99.90;;;;;;5051974;28;20045;-45
2022/07/27 04:39:03;;;;;;;4.72;1.70;;;13.10;99.90;;;;;;5065147;28;20124;-45
2022/07/27 04:41:29;;;;;;;2.17;1.38;;;13.10;99.90;;;;;;5070215;28;20115;-45
2022/07/27 04:43:55;;;;;;;8.23;2.17;;;13.10;99.90;;;;;;5059339;28;20452;-45
2022/07/27 04:46:20;;;;;;;2.28;2.08;;;13.10;99.90;;;;;;5052060;28;20052;-46
2022/07/27 04:48:46;;;;;;;3.85;1.38;;;13.10;99.90;;;;;;5052288;28;20036;-45
2022/07/27 04:51:13;;;;;;;6.30;1.55;;;13.10;99.90;;;;;;5052852;28;20060;-45
2022/07/27 04:53:39;;;;;;;3.90;1.60;;;13.00;99.90;;;;;;5053521;28;20044;-45
2022/07/27 04:56:05;;;;;;;5.70;1.85;;;13.00;99.90;;;;;;5050867;28;20521;-45
2022/07/27 04:58:30;;;;;;;2.08;1.55;;;13.00;99.90;;;;;;5058182;28;20048;-47
2022/07/27 05:00:56;;;;;;;2.67;1.80;;;13.00;99.90;;;;;;5068254;28;20425;-44
2022/07/27 05:03:21;;;;;;;7.10;2.92;;;13.00;99.90;;;;;;5051303;28;20504;-45
2022/07/27 05:05:47;;;;;;;4.55;1.98;;;13.00;99.90;;;;;;5062781;28;20044;-49
2022/07/27 05:08:12;;;;;;;3.97;2.15;;;13.00;99.90;;;;;;5060852;28;20111;-48
2022/07/27 05:10:38;;;;;;;3.40;2.03;;;13.10;99.90;;;;;;5060830;28;20128;-46
2022/07/27 05:13:03;;;;;;;4.13;2.20;;;13.10;99.90;;;;;;5051377;28;20362;-49
2022/07/27 05:15:29;;;;;;;3.47;2.50;;;13.10;99.90;;;;;;5059059;28;20336;-45
2022/07/27 05:17:55;;;;;;;3.97;2.20;;;13.10;99.90;;;;;;5071854;28;20553;-46
2022/07/27 05:20:20;;;;;;;2.53;2.33;;;13.20;99.90;;;;;;5052624;28;20129;-47
2022/07/27 05:22:46;;;;;;;3.65;1.92;;;13.20;99.90;;;;;;5050947;28;20777;-47
2022/07/27 05:25:11;;;;;;;5.25;2.40;;;13.20;99.90;;;;;;5054837;28;20112;-47
2022/07/27 05:27:37;;;;;;;5.43;2.45;;;13.20;99.90;;;;;;5054555;28;20152;-47
2022/07/27 05:30:06;;;;;;;6.60;2.75;;;13.20;99.90;;;;;;5054621;28;20040;-45
2022/07/27 05:32:32;;;;;;;10.70;2.80;;;13.30;99.90;;;;;;5051233;28;20094;-48
2022/07/27 05:34:58;;;;;;;7.18;2.67;;;13.40;99.90;;;;;;5053534;28;20044;-45
2022/07/27 05:37:24;;;;;;;5.90;2.25;;;13.40;99.90;;;;;;5063762;28;20509;-48
2022/07/27 05:39:49;;;;;;;5.63;2.75;;;13.50;99.90;;;;;;5050809;28;20041;-46
2022/07/27 05:42:15;;;;;;;3.93;2.77;;;13.50;99.90;;;;;;5051397;28;20044;-45
2022/07/27 05:44:40;;;;;;;5.72;2.13;;;13.60;99.90;;;;;;5059767;28;20045;-44
2022/07/27 05:47:06;;;;;;;5.18;1.77;;;13.60;99.90;;;;;;5051247;28;20040;-43
2022/07/27 05:49:32;;;;;;;3.30;1.83;;;13.60;99.90;;;;;;5060770;28;20101;-45
2022/07/27 05:51:57;;;;;;;7.07;2.50;;;13.70;99.90;;;;;;5059164;28;20036;-44
2022/07/27 05:54:23;;;;;;;4.40;2.65;;;13.70;99.90;;;;;;5051027;28;20559;-44
2022/07/27 05:56:48;;;;;;;3.92;1.85;;;13.70;99.90;;;;;;5066947;28;20513;-45
2022/07/27 05:59:14;;;;;;;6.47;2.22;;;13.80;99.90;;;;;;5049881;28;20040;-45
2022/07/27 06:01:39;;;;;;;4.85;1.65;;;13.80;99.90;;;;;;5050711;28;20048;-44
2022/07/27 06:04:05;;;;;;;4.88;1.75;;;13.80;99.90;;;;;;5049906;28;20048;-44
2022/07/27 06:09:15;;;;;;;10.60;2.40;;;13.90;99.90;;;;;;5050245;28;20041;-47
2022/07/27 06:11:42;;;;;;;6.57;2.10;;;14.00;99.90;;;;;;5041545;28;20174;-46
2022/07/27 06:14:07;;;;;;;9.55;1.67;;;14.10;99.90;;;;;;5047590;28;20109;-43
2022/07/27 06:16:33;;;;;;;4.63;1.40;;;14.10;99.90;;;;;;5049123;28;20550;-48
2022/07/27 06:18:59;;;;;;;10.20;1.65;;;14.10;99.90;;;;;;5048492;28;20040;-45
2022/07/27 06:21:27;;;;;;;6.50;2.05;;;14.20;99.90;;;;;;5049241;28;20438;-45
2022/07/27 06:23:56;;;;;;;7.93;2.38;;;14.20;99.90;;;;;;5049884;28;20037;-50
2022/07/27 06:26:21;;;;;;;4.13;1.77;;;14.20;99.90;;;;;;5049984;28;20308;-46
2022/07/27 06:28:47;;;;;;;5.90;2.58;;;14.30;99.90;;;;;;5049529;28;20037;-48
2022/07/27 06:31:13;;;;;;;4.53;1.63;;;14.30;99.90;;;;;;5031752;28;20041;-45
2022/07/27 06:33:39;;;;;;;7.22;2.30;;;14.30;99.90;;;;;;5045918;28;20119;-44
2022/07/27 06:36:07;;;;;;;5.15;2.20;;;14.30;99.90;;;;;;5045407;28;20147;-49
2022/07/27 06:38:33;;;;;;;6.63;2.45;;;14.40;99.90;;;;;;5035031;28;20041;-45
2022/07/27 06:41:00;;;;;;;4.50;2.17;;;14.40;99.90;;;;;;5050078;28;20041;-46
2022/07/27 06:43:31;;;;;;;;;;;14.50;99.90;;;;;;5048134;28;20037;-46
2022/07/27 06:45:57;;;;;;;12.13;2.25;;;14.50;99.90;;;;;;5041562;28;19951;-46
2022/07/27 06:48:23;;;;;;;4.45;1.65;;;14.60;99.90;;;;;;5047285;28;20217;-47
2022/07/27 06:50:50;;;;;;;4.80;1.92;;;14.60;99.90;;;;;;5065718;28;20119;-45
2022/07/27 06:53:16;;;;;;;5.13;1.75;;;14.70;99.90;;;;;;5064014;28;20105;-44
2022/07/27 06:55:42;;;;;;;;;;;14.70;99.90;;;;;;5046846;28;20120;-45
2022/07/27 06:58:08;;;;;;;4.45;1.10;;;14.80;99.90;;;;;;5063015;28;20288;-45
2022/07/27 07:00:33;;;;;;;5.93;1.45;;;14.90;99.90;;;;;;5046009;28;20072;-46
2022/07/27 07:03:03;;;;;;;4.05;0.80;;;14.90;99.90;;;;;;5044397;28;20029;-46
2022/07/27 07:05:30;;;;;;;4.70;1.23;;;15.10;99.90;;;;;;5046282;28;20037;-45
2022/07/27 07:07:56;;;;;;;4.85;0.73;;;15.10;99.90;;;;;;5047495;28;20068;-44
2022/07/27 07:10:23;;;;;;;6.45;0.70;;;15.20;99.90;;;;;;5054487;28;20494;-45
2022/07/27 07:12:50;;;;;;;1.80;0.70;;;15.20;99.90;;;;;;5044423;28;20029;-45
2022/07/27 07:15:16;;;;;;;6.32;0.60;;;15.30;99.90;;;;;;5059427;28;20601;-45
2022/07/27 07:17:41;;;;;;;5.88;1.60;;;15.40;99.90;;;;;;5061128;28;20123;-45
2022/07/27 07:20:08;;;;;;;8.50;1.23;;;15.40;99.90;;;;;;5047202;28;20418;-47
2022/07/27 07:22:33;;;;;;;;;;;15.50;99.90;;;;;;5045406;28;20033;-47
2022/07/27 07:25:00;;;;;;;5.68;0.63;;;15.50;99.90;;;;;;5047871;28;19958;-46
2022/07/27 07:27:26;;;;;;;4.43;0.80;;;15.50;99.90;;;;;;5053070;28;20064;-50
2022/07/27 07:29:52;;;;;;;;;;;15.60;99.90;;;;;;5046113;28;20445;-45
2022/07/27 07:32:21;;;;;;;6.80;0.63;;;15.60;99.90;;;;;;5064175;28;19924;-45
2022/07/27 07:34:48;;;;;;;3.15;0.43;;;15.70;99.90;;;;;;5054946;28;20060;-46
2022/07/27 07:37:14;;;;;;;5.18;0.65;;;15.70;99.90;;;;;;5055008;28;20068;-45
2022/07/27 07:39:40;;;;;;;7.45;0.43;;;15.80;99.90;;;;;;5065584;28;20068;-45
2022/07/27 07:42:06;;;;;;;1.63;0.45;;;15.80;99.90;;;;;;5062681;28;20056;-47
2022/07/27 07:44:31;;;;;;;2.50;0.77;;;15.80;99.90;;;;;;5062938;28;20052;-47
2022/07/27 07:46:57;;;;;;;1.98;0.63;;;15.90;99.90;;;;;;5063408;28;20044;-45
2022/07/27 07:49:22;;;;;;;3.83;0.40;;;15.90;99.90;;;;;;5060585;28;20078;-47
2022/07/27 07:51:48;;;;;;;3.22;0.50;;;16.00;99.90;;;;;;5066036;28;20041;-45
2022/07/27 07:54:13;;;;;;;5.88;1.08;;;16.10;99.90;;;;;;5059359;28;20067;-45
2022/07/27 07:56:39;;;;;;;2.65;0.60;;;16.10;99.90;;;;;;5061690;28;20036;-46
2022/07/27 07:59:05;;;;;;;2.42;0.30;;;16.20;99.90;;;;;;5060702;28;20026;-47
2022/07/27 08:01:30;;;;;;;4.88;0.55;;;16.20;99.90;;;;;;5062803;28;20044;-48
2022/07/27 08:03:56;;;;;;;3.17;0.35;;;16.30;99.90;;;;;;5065493;28;20103;-48
2022/07/27 08:06:21;;;;;;;3.15;0.43;;;16.40;99.90;;;;;;5065059;28;20362;-47
2022/07/27 08:08:47;;;;;;;2.67;0.93;;;16.40;99.90;;;;;;5066154;28;20105;-45
2022/07/27 08:11:13;;;;;;;2.80;0.30;;;16.50;99.90;;;;;;5063626;28;20040;-47
2022/07/27 08:13:38;;;;;;;1.38;0.47;;;16.50;99.90;;;;;;5066680;28;20041;-46
2022/07/27 08:16:04;;;;;;;3.10;0.30;;;16.60;99.90;;;;;;5054258;28;20525;-46
2022/07/27 08:18:30;;;;;;;3.38;0.40;;;16.60;99.90;;;;;;5064446;28;20568;-45
2022/07/27 08:20:55;;;;;;;3.03;0.60;;;16.60;99.90;;;;;;5065711;28;20048;-45
2022/07/27 08:23:21;;;;;;;1.77;0.50;;;16.60;99.90;;;;;;5065599;28;20047;-46
2022/07/27 08:25:47;;;;;;;1.08;0.10;;;16.60;99.90;;;;;;5066768;28;20041;-46
2022/07/27 08:28:12;;;;;;;1.05;0.20;;;16.60;99.90;;;;;;5063774;28;20032;-46
2022/07/27 08:30:38;;;;;;;2.08;0.38;;;16.70;99.90;;;;;;5057178;28;20470;-45
2022/07/27 08:33:04;;;;;;;0.90;0.20;;;16.70;99.90;;;;;;5059436;28;20041;-46
2022/07/27 08:35:31;;;;;;;1.92;0.28;;;16.90;99.90;;;;;;5062331;28;20082;-45
2022/07/27 08:37:58;;;;;;;3.33;0.32;;;17.00;99.90;;;;;;5064005;28;20044;-45
2022/07/27 08:40:24;;;;;;;2.63;0.20;;;17.10;99.90;;;;;;5054608;28;20036;-46
2022/07/27 08:42:49;;;;;;;;;;;17.30;99.40;;;;;;5055189;28;20069;-47
2022/07/27 08:45:17;;;;;;;1.13;0.10;;;17.50;98.90;;;;;;5047373;28;19963;-45
2022/07/27 08:47:44;;;;;;;1.88;0.20;;;17.60;99.50;;;;;;5046911;28;20092;-46
2022/07/27 08:50:24;;;;;;;3.50;0.43;;;17.70;98.60;;;;;;5050469;28;20127;-45
2022/07/27 08:52:56;;;;;;;1.63;0.20;;;17.70;98.20;;;;;;5049243;28;20514;-46
2022/07/27 08:55:22;;;;;;;6.03;0.25;;;17.80;98.70;;;;;;5059745;28;20090;-46
2022/07/27 08:57:49;;;;;;;8.18;0.82;;;18.00;99.10;;;;;;5051406;28;20032;-48
2022/07/27 09:00:15;;;;;;;2.47;0.30;;;18.20;97.50;;;;;;5050599;28;20414;-48
2022/07/27 09:02:42;;;;;;;;;;;18.30;97.70;;;;;;5049440;28;20040;-46
2022/07/27 09:05:09;;;;;;;1.35;0.20;;;18.40;97.50;;;;;;5052961;28;20321;-46
2022/07/27 09:07:34;;;;;;;1.85;0.22;;;18.50;97.30;;;;;;5050488;28;20028;-46
2022/07/27 09:10:00;;;;;;;3.22;0.20;;;18.60;96.70;;;;;;5056293;28;20055;-46
2022/07/27 09:12:28;;;;;;;2.83;0.25;;;18.60;96.70;;;;;;5055289;28;20037;-46
2022/07/27 09:15:23;;;;;;;4.88;0.50;;;18.60;97.00;;;;;;5053859;28;20345;-46
2022/07/27 09:17:49;;;;;;;2.28;0.40;;;18.70;96.90;;;;;;5010781;28;20046;-46
2022/07/27 09:20:17;;;;;;;3.60;0.30;;;18.80;96.60;;;;;;5009987;28;20065;-46
2022/07/27 09:22:54;;;;;;;3.05;0.20;;;18.80;97.10;;;;;;5010129;28;20057;-46
2022/07/27 09:25:20;;;;;;;;;;;18.90;95.90;;;;;;5021331;28;20040;-46
2022/07/27 09:27:48;;;;;;;5.00;0.60;;;18.90;95.00;;;;;;5019624;28;19925;-46
2022/07/27 09:30:17;;;;;;;2.20;0.20;;;19.00;96.30;;;;;;5020847;28;20041;-46
2022/07/27 09:32:54;;;;;;;2.03;0.30;;;19.00;95.20;;;;;;5026088;28;20049;-46
2022/07/27 09:35:29;;;;;;;3.65;0.57;;;19.00;94.80;;;;;;5025464;28;20083;-46
2022/07/27 09:37:56;;;;;;;2.35;0.35;;;19.00;95.50;;;;;;5024892;28;20037;-49
2022/07/27 09:40:23;;;;;;;13.45;1.30;;;19.10;95.70;;;;;;5026473;28;20053;-46
2022/07/27 09:43:09;;;;;;;4.32;0.45;;;19.20;95.90;;;;;;5026893;28;20072;-47
2022/07/27 09:45:37;;;;;;;5.10;0.20;;;19.30;96.00;;;;;;5023106;28;20041;-47
2022/07/27 09:48:11;;;;;;;1.85;0.30;;;19.50;95.60;;;;;;5023902;28;20088;-47
2022/07/27 09:50:42;;;;;;;3.85;0.20;;;19.60;95.40;;;;;;5018452;28;20045;-48
2022/07/27 09:53:22;;;;;;;5.93;0.75;;;19.70;95.30;;;;;;5028115;28;20045;-45
2022/07/27 09:56:07;;;;;;;7.35;1.17;;;19.80;95.30;;;;;;5061571;28;20041;-47
2022/07/27 09:58:46;;;;;;;6.10;0.30;;;19.80;94.50;;;;;;5056784;28;20049;-48
2022/07/27 10:01:16;;;;;;;9.93;0.45;;;19.80;94.90;;;;;;5064520;28;20032;-49
2022/07/27 10:03:44;;;;;;;7.15;0.38;;;19.70;94.40;;;;;;5068187;28;20085;-48
2022/07/27 10:06:11;;;;;;;4.10;0.75;;;19.60;94.80;;;;;;5065330;28;20043;-47
2022/07/27 10:08:42;;;;;;;4.85;0.30;;;19.50;95.00;;;;;;5066784;28;20072;-46
2022/07/27 10:11:09;;;;;;;2.92;0.28;;;19.40;94.80;;;;;;5061832;28;20448;-47
2022/07/27 10:13:35;;;;;;;3.38;0.40;;;19.20;95.00;;;;;;5059882;28;20111;-46
2022/07/27 10:16:03;;;;;;;5.45;0.40;;;19.10;95.40;;;;;;5057657;28;20525;-46
2022/07/27 10:18:53;;;;;;;5.38;0.32;;;19.00;95.50;;;;;;5064234;28;20418;-45
2022/07/27 10:21:19;;;;;;;7.95;0.57;;;18.90;95.70;;;;;;5062153;28;20040;-46
2022/07/27 10:23:59;;;;;;;4.05;0.45;;;18.80;96.00;;;;;;5059450;28;20171;-45
2022/07/27 10:26:24;;;;;;;7.22;0.60;;;18.80;95.80;;;;;;5061325;28;20493;-46
2022/07/27 10:28:58;;;;;;;6.00;0.65;;;18.70;95.80;;;;;;5063753;28;20048;-48
2022/07/27 10:31:37;;;;;;;5.25;0.73;;;18.60;95.70;;;;;;5062618;28;20123;-51
2022/07/27 10:34:05;;;;;;;3.83;0.50;;;18.60;95.80;;;;;;5059995;28;20032;-46
2022/07/27 10:36:30;;;;;;;4.53;0.73;;;18.50;95.80;;;;;;5058782;28;20048;-46
2022/07/27 10:39:06;;;;;;;6.85;0.40;;;18.50;95.90;;;;;;5068878;28;20485;-45
2022/07/27 10:41:40;;;;;;;6.07;0.77;;;18.50;95.90;;;;;;5061157;28;20044;-46
2022/07/27 10:44:29;;;;;;;5.63;0.50;;;18.50;96.10;;;;;;5057439;28;20769;-46
2022/07/27 10:47:00;;;;;;;2.65;0.40;;;18.60;96.30;;;;;;5049493;28;20053;-46
2022/07/27 10:49:33;;;;;;;4.45;0.95;;;18.60;95.90;;;;;;5059585;28;20052;-46
2022/07/27 10:52:00;;;;;;;3.08;0.95;;;18.60;96.00;;;;;;5064681;28;20041;-49
2022/07/27 10:54:36;;;;;;;3.33;0.52;;;18.70;96.20;;;;;;5056359;28;20044;-45
2022/07/27 10:57:04;;;;;;;4.57;0.30;;;18.70;96.40;;;;;;5058092;28;20559;-46
2022/07/27 10:59:56;;;;;;;2.15;0.28;;;18.80;96.40;;;;;;5062082;28;20051;-45
2022/07/27 11:02:37;;;;;;;5.78;0.63;;;18.90;96.10;;;;;;5057942;28;20053;-45
2022/07/27 11:05:04;;;;;;;5.40;1.00;;;18.90;95.90;;;;;;5052389;28;20037;-45
2022/07/27 11:07:29;;;;;;;;;;;18.90;96.00;;;;;;5062560;28;20044;-45
2022/07/27 11:09:55;;;;;;;3.67;1.20;;;19.00;96.50;;;;;;5070477;28;19917;-45
2022/07/27 11:12:26;;;;;;;;;;;19.10;96.00;;;;;;5068881;28;20540;-46
2022/07/27 11:14:55;;;;;;;2.65;0.20;;;19.30;97.10;;;;;;5069559;28;20011;-46
2022/07/27 11:17:26;;;;;;;2.05;0.20;;;19.50;95.50;;;;;;5071575;28;20059;-51
2022/07/27 11:19:57;;;;;;;2.92;0.38;;;19.70;94.90;;;;;;5060661;28;20043;-48
2022/07/27 11:22:36;;;;;;;5.32;0.50;;;19.90;94.30;;;;;;5061446;28;20055;-51
2022/07/27 11:25:03;;;;;;;0.60;0.25;;;20.00;94.20;;;;;;5067168;28;20082;-46
2022/07/27 11:27:29;;;;;;;1.42;0.30;;;20.00;94.10;;;;;;5069907;28;20071;-51
2022/07/27 11:29:56;;;;;;;2.53;0.30;;;20.00;93.30;;;;;;5068947;28;20043;-49
2022/07/27 11:32:22;;;;;;;1.92;0.30;;;19.90;93.40;;;;;;5069960;28;20051;-49
2022/07/27 11:34:47;;;;;;;;;;;20.00;93.80;;;;;;5061178;28;20375;-50
2022/07/27 11:37:18;;;;;;;0.80;0.30;;;20.00;92.60;;;;;;5062618;28;19922;-51
2022/07/27 11:39:45;;;;;;;1.35;0.70;;;20.00;93.20;;;;;;5062769;28;20525;-45
2022/07/27 11:42:12;;;;;;;0.95;0.30;;;20.10;93.20;;;;;;5071188;28;20085;-46
2022/07/27 11:44:38;;;;;;;3.17;0.30;;;20.10;93.50;;;;;;5069830;28;20118;-46
2022/07/27 11:47:04;;;;;;;3.63;0.20;;;20.20;93.90;;;;;;5061184;28;20036;-47
2022/07/27 11:49:31;;;;;;;1.67;0.30;;;20.20;94.00;;;;;;5062563;28;20044;-48
2022/07/27 11:52:02;;;;;;;1.50;0.30;;;20.30;93.60;;;;;;5067014;28;20119;-49
2022/07/27 11:54:39;;;;;;;1.30;0.20;;;20.40;93.90;;;;;;5070913;28;20796;-50
2022/07/27 11:57:06;;;;;;;2.30;0.30;;;20.50;93.40;;;;;;5063318;28;20409;-50
2022/07/27 11:59:39;;;;;;;5.30;0.57;;;20.50;93.40;;;;;;5062170;28;20037;-50
2022/07/27 12:02:16;;;;;;;2.30;0.30;;;20.50;93.00;;;;;;5062133;28;20043;-49
2022/07/27 12:04:44;;;;;;;4.05;0.52;;;20.50;93.20;;;;;;5064650;28;20438;-50
2022/07/27 12:07:30;;;;;;;4.80;0.73;;;20.50;93.10;;;;;;5066319;28;20036;-47
2022/07/27 12:10:01;;;;;;;4.28;0.22;;;20.50;92.60;;;;;;5065346;28;20070;-47
2022/07/27 12:12:28;;;;;;;2.90;0.43;;;20.40;92.00;;;;;;5062018;28;20037;-49
2022/07/27 12:14:55;;;;;;;2.40;0.10;;;20.40;92.10;;;;;;5064455;28;20041;-47
2022/07/27 12:17:34;;;;;;;3.83;0.50;;;20.40;91.90;;;;;;5065367;28;20048;-47
2022/07/27 12:20:14;;;;;;;2.05;0.30;;;20.40;91.50;;;;;;5066782;28;20067;-51
2022/07/27 12:22:45;;;;;;;3.00;0.63;;;20.40;91.10;;;;;;5061071;28;20037;-47
2022/07/27 12:25:16;;;;;;;3.13;0.25;;;20.50;90.80;;;;;;5069431;28;20046;-47
2022/07/27 12:27:52;;;;;;;3.03;0.40;;;20.70;91.30;;;;;;5068144;28;20033;-50
2022/07/27 12:30:26;;;;;;;2.78;0.30;;;20.70;90.30;;;;;;5064591;28;20571;-50
2022/07/27 12:32:52;;;;;;;2.83;0.30;;;20.80;90.40;;;;;;5067895;28;20094;-50
2022/07/27 12:35:24;;;;;;;;;;;20.90;90.30;;;;;;5071231;28;20037;-45
2022/07/27 12:37:58;;;;;;;0.63;0.20;;;20.90;90.10;;;;;;5059330;28;19916;-48
2022/07/27 12:40:24;;;;;;;4.38;0.50;;;21.00;90.20;;;;;;5065043;28;20045;-45
2022/07/27 12:43:01;;;;;;;;;;;21.00;90.70;;;;;;5070989;28;20029;-45
2022/07/27 12:45:35;;;;;;;3.33;0.32;;;21.10;89.40;;;;;;5069306;28;19962;-45
2022/07/27 12:48:09;;;;;;;5.10;0.40;;;21.10;89.10;;;;;;5051293;28;20097;-45
2022/07/27 12:50:36;;;;;;;4.70;0.30;;;21.10;89.20;;;;;;5061221;28;20486;-49
2022/07/27 12:53:02;;;;;;;4.00;0.30;;;21.10;89.30;;;;;;5065482;28;20493;-47
2022/07/27 12:55:28;;;;;;;2.10;0.20;;;21.10;88.90;;;;;;5065375;28;20106;-46
2022/07/27 12:57:54;;;;;;;;;;;21.00;89.20;;;;;;5064838;28;20061;-48